createdAt,value
2022-08-26T00:00:57.642Z,52.50
2022-08-26T00:03:23.588Z,52.20
2022-08-26T00:05:50.380Z,52.72
2022-08-26T00:08:19.135Z,52.25
2022-08-26T00:10:45.347Z,52.19
2022-08-26T00:13:11.387Z,52.48
2022-08-26T00:15:38.013Z,52.71
2022-08-26T00:18:04.486Z,52.65
2022-08-26T00:20:42.816Z,52.92
2022-08-26T00:23:09.007Z,52.85
2022-08-26T00:25:35.625Z,52.67
2022-08-26T00:28:09.130Z,52.87
2022-08-26T00:30:37.143Z,53.24
2022-08-26T00:33:05.288Z,53.55
2022-08-26T00:35:32.261Z,53.39
2022-08-26T00:38:00.873Z,54.04
2022-08-26T00:40:34.721Z,53.76
2022-08-26T00:43:02.349Z,54.27
2022-08-26T00:46:04.126Z,54.31
2022-08-26T00:48:34.960Z,54.91
2022-08-26T00:51:11.101Z,55.04
2022-08-26T00:53:44.970Z,55.28
2022-08-26T00:57:00.382Z,55.44
2022-08-26T00:59:28.431Z,55.46
2022-08-26T01:01:56.102Z,55.98
2022-08-26T01:04:23.670Z,56.24
2022-08-26T01:06:53.753Z,57.50
2022-08-26T01:09:21.595Z,58.07
2022-08-26T01:11:49.756Z,58.27
2022-08-26T01:14:16.956Z,58.09
2022-08-26T01:16:45.181Z,58.34
2022-08-26T01:19:26.220Z,58.43
2022-08-26T01:21:58.731Z,58.62
2022-08-26T01:24:26.917Z,59.12
2022-08-26T01:26:59.770Z,58.96
2022-08-26T01:29:27.287Z,59.35
2022-08-26T01:31:55.905Z,59.60
2022-08-26T01:34:36.974Z,59.42
2022-08-26T01:37:16.095Z,59.70
2022-08-26T01:39:44.066Z,59.48
2022-08-26T01:42:13.865Z,59.53
2022-08-26T01:44:44.334Z,59.36
2022-08-26T01:47:12.861Z,60.17
2022-08-26T01:49:40.333Z,60.31
2022-08-26T01:52:09.395Z,60.56
2022-08-26T01:54:36.877Z,60.93
2022-08-26T01:57:04.651Z,61.38
2022-08-26T01:59:30.795Z,62.46
2022-08-26T02:01:57.220Z,62.75
2022-08-26T02:04:32.375Z,62.89
2022-08-26T02:07:01.502Z,63.20
2022-08-26T02:09:27.640Z,64.09
2022-08-26T02:11:53.985Z,64.14
2022-08-26T02:14:28.523Z,64.44
2022-08-26T02:16:55.424Z,64.89
2022-08-26T02:19:28.573Z,65.17
2022-08-26T02:21:57.242Z,64.75
2022-08-26T02:24:27.541Z,63.72
2022-08-26T02:26:55.106Z,63.26
2022-08-26T02:29:43.886Z,64.23
2022-08-26T02:32:10.450Z,63.67
2022-08-26T02:34:37.279Z,63.41
2022-08-26T02:37:07.567Z,63.33
2022-08-26T02:39:36.256Z,62.39
2022-08-26T02:42:04.518Z,62.93
2022-08-26T02:44:31.126Z,63.37
2022-08-26T02:46:59.762Z,63.37
2022-08-26T02:49:27.565Z,62.85
2022-08-26T02:51:53.581Z,62.94
2022-08-26T02:54:23.278Z,62.89
2022-08-26T02:56:50.586Z,63.71
2022-08-26T02:59:17.240Z,63.61
2022-08-26T03:01:44.445Z,63.53
2022-08-26T03:04:12.149Z,63.50
2022-08-26T03:06:38.686Z,63.02
2022-08-26T03:09:06.912Z,62.85
2022-08-26T03:11:33.731Z,61.56
2022-08-26T03:14:00.320Z,61.66
2022-08-26T03:16:32.252Z,62.26
2022-08-26T03:18:59.254Z,61.68
2022-08-26T03:21:25.179Z,61.92
2022-08-26T03:23:51.005Z,60.84
2022-08-26T03:26:16.853Z,60.95
2022-08-26T03:29:00.950Z,60.50
2022-08-26T03:31:28.771Z,60.65
2022-08-26T03:33:59.129Z,60.05
2022-08-26T03:36:26.039Z,59.64
2022-08-26T03:38:51.850Z,60.28
2022-08-26T03:41:17.721Z,60.64
2022-08-26T03:43:44.250Z,61.84
2022-08-26T03:46:11.593Z,64.25
2022-08-26T03:48:38.931Z,65.61
2022-08-26T03:51:11.815Z,66.16
2022-08-26T03:53:37.640Z,67.86
2022-08-26T03:56:05.831Z,67.32
2022-08-26T03:58:32.415Z,67.46
2022-08-26T04:00:58.596Z,69.11
2022-08-26T04:03:52.454Z,70.88
2022-08-26T04:06:18.349Z,71.67
2022-08-26T04:08:44.464Z,72.46
2022-08-26T04:11:17.614Z,72.73
2022-08-26T04:13:43.509Z,73.23
2022-08-26T04:16:09.285Z,73.44
2022-08-26T04:18:37.524Z,73.46
2022-08-26T04:21:12.349Z,73.90
2022-08-26T04:23:47.625Z,74.12
2022-08-26T04:26:14.520Z,75.17
2022-08-26T04:28:40.318Z,74.82
2022-08-26T04:31:10.414Z,75.94
2022-08-26T04:33:36.285Z,76.48
2022-08-26T04:36:08.484Z,76.40
2022-08-26T04:38:34.558Z,76.59
2022-08-26T04:41:00.763Z,77.10
2022-08-26T04:43:29.906Z,78.33
2022-08-26T04:45:59.167Z,79.35
2022-08-26T04:48:26.741Z,79.83
2022-08-26T04:50:52.715Z,80.32
2022-08-26T04:53:18.904Z,80.62
2022-08-26T04:55:45.157Z,81.93
2022-08-26T04:58:14.286Z,83.18
2022-08-26T05:00:40.146Z,83.43
2022-08-26T05:03:07.590Z,84.36
2022-08-26T05:05:41.672Z,85.79
2022-08-26T05:08:12.162Z,86.03
2022-08-26T05:10:43.594Z,86.58
2022-08-26T05:13:11.238Z,86.11
2022-08-26T05:15:38.556Z,88.70
2022-08-26T05:18:06.327Z,88.58
2022-08-26T05:20:42.674Z,89.49
2022-08-26T05:23:08.669Z,91.30
2022-08-26T05:25:39.788Z,91.75
2022-08-26T05:28:05.994Z,92.52
2022-08-26T05:30:31.966Z,92.87
2022-08-26T05:32:58.441Z,94.16
2022-08-26T05:35:28.332Z,93.17
2022-08-26T05:37:58.395Z,93.17
2022-08-26T05:40:24.912Z,93.25
2022-08-26T05:42:52.244Z,94.30
2022-08-26T05:45:19.530Z,94.62
2022-08-26T05:47:45.653Z,93.54
2022-08-26T05:50:12.797Z,92.74
2022-08-26T05:52:38.646Z,93.31
2022-08-26T05:55:05.041Z,93.31
2022-08-26T05:57:32.218Z,92.64
2022-08-26T05:59:58.106Z,93.18
2022-08-26T06:02:23.970Z,93.26
2022-08-26T06:04:50.061Z,93.49
2022-08-26T06:07:37.658Z,93.62
2022-08-26T06:10:30.927Z,92.72
2022-08-26T06:12:52.120Z,92.77
2022-08-26T06:15:17.975Z,92.47
2022-08-26T06:17:45.205Z,93.88
2022-08-26T06:20:11.510Z,93.38
2022-08-26T06:22:56.373Z,93.72
2022-08-26T06:25:37.295Z,91.99
2022-08-26T06:28:04.518Z,92.88
2022-08-26T06:30:31.941Z,92.95
2022-08-26T06:33:00.230Z,93.73
2022-08-26T06:35:26.283Z,93.37
2022-08-26T06:37:52.081Z,93.53
2022-08-26T06:40:18.126Z,93.15
2022-08-26T06:42:45.100Z,96.15
2022-08-26T06:45:11.213Z,94.63
2022-08-26T06:47:37.329Z,94.05
2022-08-26T06:50:03.257Z,94.57
2022-08-26T06:52:29.064Z,95.39
2022-08-26T06:54:55.099Z,95.00
2022-08-26T06:57:20.976Z,95.98
2022-08-26T06:59:47.418Z,96.53
2022-08-26T07:02:17.038Z,97.88
2022-08-26T07:04:43.714Z,97.43
2022-08-26T07:07:14.615Z,97.05
2022-08-26T07:09:40.479Z,97.09
2022-08-26T07:12:06.797Z,96.34
2022-08-26T07:14:34.410Z,95.49
2022-08-26T07:17:01.149Z,95.77
2022-08-26T07:19:30.545Z,95.04
2022-08-26T07:21:58.628Z,93.99
2022-08-26T07:24:24.470Z,94.70
2022-08-26T07:26:58.487Z,95.63
2022-08-26T07:29:24.709Z,96.54
2022-08-26T07:31:51.469Z,95.74
2022-08-26T07:34:17.334Z,96.05
2022-08-26T07:36:43.849Z,95.54
2022-08-26T07:39:09.620Z,96.67
2022-08-26T07:41:35.855Z,96.14
2022-08-26T07:44:02.186Z,96.50
2022-08-26T07:46:30.559Z,95.86
2022-08-26T07:48:57.633Z,95.36
2022-08-26T07:51:24.126Z,94.89
2022-08-26T07:53:52.465Z,93.97
2022-08-26T07:56:19.653Z,93.24
2022-08-26T07:58:50.491Z,92.88
2022-08-26T08:01:22.997Z,91.77
2022-08-26T08:03:52.544Z,91.72
2022-08-26T08:06:27.235Z,91.79
2022-08-26T08:08:55.035Z,93.30
2022-08-26T08:11:21.244Z,92.86
2022-08-26T08:13:47.883Z,91.93
2022-08-26T08:16:14.919Z,91.97
2022-08-26T08:18:40.817Z,94.45
2022-08-26T08:21:22.156Z,95.31
2022-08-26T08:23:55.118Z,94.18
2022-08-26T08:26:23.190Z,91.94
2022-08-26T08:28:49.285Z,90.41
2022-08-26T08:31:38.983Z,88.90
2022-08-26T08:34:09.351Z,88.75
2022-08-26T08:36:35.889Z,88.18
2022-08-26T08:39:02.390Z,86.50
2022-08-26T08:41:40.835Z,86.97
2022-08-26T08:44:15.221Z,83.79
2022-08-26T08:46:42.190Z,84.17
2022-08-26T08:49:10.345Z,83.85
2022-08-26T08:51:51.440Z,84.24
2022-08-26T08:54:18.900Z,83.87
2022-08-26T08:57:00.994Z,83.22
2022-08-26T08:59:32.808Z,81.87
2022-08-26T09:02:08.862Z,81.72
2022-08-26T09:04:51.192Z,81.18
2022-08-26T09:07:50.184Z,80.95
2022-08-26T09:10:22.584Z,78.71
2022-08-26T09:12:50.003Z,80.89
2022-08-26T09:15:21.752Z,81.04
2022-08-26T09:18:11.688Z,81.54
2022-08-26T09:20:48.783Z,81.24
2022-08-26T09:23:15.735Z,82.12
2022-08-26T09:26:20.042Z,81.17
2022-08-26T09:29:01.459Z,80.57
2022-08-26T09:31:35.545Z,76.97
2022-08-26T09:34:17.313Z,77.37
2022-08-26T09:36:52.802Z,77.35
2022-08-26T09:39:27.394Z,76.85
2022-08-26T09:42:08.275Z,76.15
2022-08-26T09:45:03.283Z,75.04
2022-08-26T09:47:37.805Z,72.62
2022-08-26T09:50:13.695Z,71.71
2022-08-26T09:52:40.536Z,72.98
2022-08-26T09:55:23.023Z,72.33
2022-08-26T09:57:54.414Z,73.11
2022-08-26T10:00:38.603Z,73.08
2022-08-26T10:03:23.342Z,71.05
2022-08-26T10:06:03.538Z,69.95
2022-08-26T10:08:44.086Z,69.13
2022-08-26T10:11:28.303Z,67.05
2022-08-26T10:13:59.980Z,66.05
2022-08-26T10:16:44.714Z,66.42
2022-08-26T10:19:16.154Z,64.87
2022-08-26T10:21:52.261Z,64.69
2022-08-26T10:24:30.294Z,62.83
2022-08-26T10:27:01.757Z,61.06
2022-08-26T10:29:50.090Z,59.72
2022-08-26T10:32:41.347Z,59.52
2022-08-26T10:35:11.724Z,62.05
2022-08-26T10:38:08.457Z,62.61
2022-08-26T10:41:00.835Z,63.04
2022-08-26T10:43:35.204Z,61.45
2022-08-26T10:46:13.686Z,61.23
2022-08-26T10:48:48.473Z,59.61
2022-08-26T10:51:15.763Z,58.37
2022-08-26T10:54:10.264Z,56.59
2022-08-26T10:56:54.870Z,57.63
2022-08-26T10:59:39.112Z,58.97
2022-08-26T11:02:25.273Z,59.81
2022-08-26T11:05:02.669Z,60.98
2022-08-26T11:07:46.288Z,59.43
2022-08-26T11:10:21.804Z,58.53
2022-08-26T11:12:51.346Z,56.67
2022-08-26T11:15:19.297Z,53.93
2022-08-26T11:17:50.544Z,52.97
2022-08-26T11:20:41.846Z,52.29
2022-08-26T11:23:30.983Z,51.14
2022-08-26T11:26:08.725Z,50.54
2022-08-26T11:28:40.339Z,50.83
2022-08-26T11:31:25.831Z,50.81
2022-08-26T11:33:56.617Z,50.61
2022-08-26T11:36:28.678Z,50.59
2022-08-26T11:38:54.503Z,50.09
2022-08-26T11:41:23.624Z,49.96
2022-08-26T11:43:51.473Z,51.10
2022-08-26T11:46:26.103Z,50.29
2022-08-26T11:49:04.530Z,48.13
2022-08-26T11:51:31.287Z,48.25
2022-08-26T11:54:15.881Z,48.23
2022-08-26T11:56:43.830Z,51.02
2022-08-26T11:59:14.777Z,50.98
2022-08-26T12:01:48.314Z,48.60
2022-08-26T12:04:27.927Z,48.14
2022-08-26T12:06:54.995Z,48.62
2022-08-26T12:09:24.267Z,48.11
2022-08-26T12:11:50.154Z,48.26
2022-08-26T12:14:20.011Z,49.25
2022-08-26T12:16:46.606Z,49.11
2022-08-26T12:19:29.294Z,47.30
2022-08-26T12:22:04.240Z,46.95
2022-08-26T12:24:30.441Z,45.59
2022-08-26T12:27:15.033Z,45.54
2022-08-26T12:29:41.096Z,46.66
2022-08-26T12:32:17.510Z,49.15
2022-08-26T12:34:46.482Z,49.64
2022-08-26T12:37:13.453Z,49.71
2022-08-26T12:39:43.639Z,52.51
2022-08-26T12:42:12.237Z,51.79
2022-08-26T12:44:53.965Z,54.14
2022-08-26T12:47:42.052Z,55.83
2022-08-26T12:50:12.204Z,55.16
2022-08-26T12:53:08.928Z,54.17
2022-08-26T12:55:55.966Z,52.87
2022-08-26T12:58:34.000Z,51.46
2022-08-26T13:01:05.975Z,51.14
2022-08-26T13:03:36.284Z,51.52
2022-08-26T13:06:23.225Z,50.81
2022-08-26T13:08:59.140Z,52.50
2022-08-26T13:11:28.364Z,54.46
2022-08-26T13:14:00.625Z,56.33
2022-08-26T13:16:28.571Z,57.19
2022-08-26T13:18:57.346Z,58.03
2022-08-26T13:21:26.708Z,60.92
2022-08-26T13:23:53.314Z,60.93
2022-08-26T13:26:19.971Z,60.84
2022-08-26T13:28:53.276Z,62.41
2022-08-26T13:31:30.208Z,63.83
2022-08-26T13:33:56.688Z,64.62
2022-08-26T13:36:22.749Z,65.69
2022-08-26T13:38:48.641Z,65.84
2022-08-26T13:41:18.501Z,65.00
2022-08-26T13:43:54.878Z,67.85
2022-08-26T13:46:20.755Z,66.43
2022-08-26T13:48:46.709Z,66.21
2022-08-26T13:51:12.728Z,65.13
2022-08-26T13:53:38.525Z,65.11
2022-08-26T13:56:10.856Z,65.74
2022-08-26T13:58:36.987Z,67.75
2022-08-26T14:01:02.951Z,67.99
2022-08-26T14:03:28.851Z,68.26
2022-08-26T14:05:55.173Z,66.77
2022-08-26T14:08:21.585Z,67.98
2022-08-26T14:13:15.022Z,69.63
2022-08-26T14:15:41.203Z,69.38
2022-08-26T14:18:09.303Z,69.87
2022-08-26T14:20:36.628Z,70.63
2022-08-26T14:23:13.643Z,72.30
2022-08-26T14:25:40.263Z,72.14
2022-08-26T14:28:06.072Z,72.60
2022-08-26T14:30:32.003Z,72.03
2022-08-26T14:33:01.193Z,72.59
2022-08-26T14:35:30.048Z,72.40
2022-08-26T14:37:56.642Z,72.54
2022-08-26T14:40:26.434Z,73.04
2022-08-26T14:42:54.031Z,73.08
2022-08-26T14:45:23.547Z,73.04
2022-08-26T14:47:51.603Z,73.51
2022-08-26T14:50:24.278Z,73.92
2022-08-26T14:53:09.644Z,74.29
2022-08-26T14:55:37.583Z,74.33
2022-08-26T14:58:03.840Z,73.82
2022-08-26T15:00:30.265Z,74.43
2022-08-26T15:02:57.591Z,74.65
2022-08-26T15:05:24.367Z,75.16
2022-08-26T15:07:50.177Z,76.14
2022-08-26T15:10:17.247Z,75.31
2022-08-26T15:12:44.066Z,76.91
2022-08-26T15:15:12.211Z,79.01
2022-08-26T15:17:39.406Z,80.09
2022-08-26T15:20:09.642Z,80.29
2022-08-26T15:22:37.397Z,79.43
2022-08-26T15:25:04.884Z,80.13
2022-08-26T15:27:31.462Z,79.19
2022-08-26T15:29:57.634Z,78.10
2022-08-26T15:32:23.574Z,77.46
2022-08-26T15:34:49.999Z,79.10
2022-08-26T15:37:16.233Z,78.76
2022-08-26T15:39:42.475Z,79.34
2022-08-26T15:42:08.308Z,79.76
2022-08-26T15:44:35.870Z,80.24
2022-08-26T15:47:01.920Z,80.26
2022-08-26T15:49:27.893Z,81.23
2022-08-26T15:51:54.264Z,81.48
2022-08-26T15:54:22.433Z,81.11
2022-08-26T15:56:50.952Z,79.99
2022-08-26T15:59:18.036Z,82.02
2022-08-26T16:01:44.970Z,81.69
2022-08-26T16:04:11.686Z,81.47
2022-08-26T16:06:39.693Z,80.89
2022-08-26T16:09:06.894Z,81.24
2022-08-26T16:11:35.223Z,80.45
2022-08-26T16:14:01.719Z,80.40
2022-08-26T16:16:27.689Z,80.66
2022-08-26T16:18:54.001Z,81.01
2022-08-26T16:21:23.691Z,81.25
2022-08-26T16:23:50.216Z,81.37
2022-08-26T16:26:19.762Z,81.54
2022-08-26T16:28:46.629Z,82.46
2022-08-26T16:31:13.157Z,82.79
2022-08-26T16:33:39.958Z,82.21
2022-08-26T16:36:06.797Z,81.98
2022-08-26T16:38:33.644Z,81.95
2022-08-26T16:41:00.438Z,81.35
2022-08-26T16:43:26.645Z,82.43
2022-08-26T16:45:52.545Z,81.87
2022-08-26T16:48:18.852Z,81.82
2022-08-26T16:50:44.781Z,81.27
2022-08-26T16:55:48.836Z,80.45
2022-08-26T16:58:16.020Z,80.38
2022-08-26T17:00:42.145Z,80.12
2022-08-26T17:03:08.712Z,80.72
2022-08-26T17:05:35.568Z,81.34
2022-08-26T17:08:01.594Z,81.92
2022-08-26T17:10:29.336Z,81.27
2022-08-26T17:12:55.765Z,81.58
2022-08-26T17:15:25.162Z,81.79
2022-08-26T17:17:52.453Z,81.62
2022-08-26T17:20:19.291Z,82.13
2022-08-26T17:22:47.061Z,82.51
2022-08-26T17:25:23.429Z,84.53
2022-08-26T17:27:49.557Z,85.84
2022-08-26T17:30:16.907Z,85.38
2022-08-26T17:32:43.421Z,85.20
2022-08-26T17:35:11.547Z,85.51
2022-08-26T17:37:39.948Z,86.14
2022-08-26T17:40:09.019Z,85.38
2022-08-26T17:42:37.420Z,85.95
2022-08-26T17:45:03.633Z,85.15
2022-08-26T17:47:29.413Z,85.22
2022-08-26T17:49:55.401Z,84.96
2022-08-26T17:52:21.338Z,85.80
2022-08-26T17:54:47.206Z,84.30
2022-08-26T17:57:13.091Z,84.41
2022-08-26T17:59:38.986Z,84.26
2022-08-26T18:02:06.903Z,85.51
2022-08-26T18:04:32.796Z,86.13
2022-08-26T18:06:58.758Z,86.32
2022-08-26T18:09:24.689Z,86.69
2022-08-26T18:11:50.547Z,86.31
2022-08-26T18:14:16.401Z,86.57
2022-08-26T18:16:42.293Z,85.88
2022-08-26T18:19:08.242Z,85.28
2022-08-26T18:21:35.497Z,85.37
2022-08-26T18:24:01.864Z,86.85
2022-08-26T18:26:32.510Z,87.24
2022-08-26T18:28:59.555Z,87.14
2022-08-26T18:31:26.147Z,86.42
2022-08-26T18:33:52.551Z,87.14
2022-08-26T18:36:21.396Z,87.26
2022-08-26T18:38:50.473Z,88.08
2022-08-26T18:41:19.855Z,86.94
2022-08-26T18:43:46.212Z,86.75
2022-08-26T18:46:12.139Z,88.10
2022-08-26T18:48:39.863Z,89.02
2022-08-26T18:51:06.451Z,90.34
2022-08-26T18:53:33.688Z,90.33
2022-08-26T18:56:00.413Z,90.31
2022-08-26T18:58:26.520Z,90.44
2022-08-26T19:00:54.105Z,91.73
2022-08-26T19:03:19.922Z,91.19
2022-08-26T19:05:45.801Z,92.01
2022-08-26T19:08:11.718Z,91.05
2022-08-26T19:10:38.737Z,90.83
2022-08-26T19:13:06.639Z,91.21
2022-08-26T19:15:40.773Z,92.15
2022-08-26T19:18:07.842Z,91.56
2022-08-26T19:20:36.850Z,90.90
2022-08-26T19:23:10.554Z,90.54
2022-08-26T19:25:50.825Z,91.16
2022-08-26T19:28:20.371Z,90.56
2022-08-26T19:30:52.533Z,91.41
2022-08-26T19:33:19.236Z,91.27
2022-08-26T19:35:45.462Z,92.88
2022-08-26T19:38:11.365Z,94.54
2022-08-26T19:40:38.436Z,95.37
2022-08-26T19:43:05.144Z,94.80
2022-08-26T19:45:31.817Z,95.00
2022-08-26T19:47:58.054Z,95.11
2022-08-26T19:50:26.907Z,95.07
2022-08-26T19:52:53.390Z,93.93
2022-08-26T19:55:21.723Z,94.70
2022-08-26T19:57:49.447Z,94.75
2022-08-26T20:00:17.666Z,94.24
2022-08-26T20:02:43.942Z,93.00
2022-08-26T20:05:11.847Z,92.55
2022-08-26T20:07:38.516Z,91.63
2022-08-26T20:10:06.966Z,92.14
2022-08-26T20:12:34.859Z,92.22
2022-08-26T20:15:04.353Z,93.60
2022-08-26T20:17:31.302Z,94.84
2022-08-26T20:20:28.493Z,95.08
2022-08-26T20:23:00.943Z,92.90
2022-08-26T20:25:26.794Z,92.09
2022-08-26T20:27:52.625Z,91.66
2022-08-26T20:30:18.570Z,91.81
2022-08-26T20:32:44.428Z,92.11
2022-08-26T20:35:13.114Z,91.04
2022-08-26T20:37:40.426Z,91.79
2022-08-26T20:40:08.580Z,91.47
2022-08-26T20:42:35.201Z,91.27
2022-08-26T20:45:01.957Z,91.54
2022-08-26T20:47:27.984Z,91.38
2022-08-26T20:49:55.193Z,91.51
2022-08-26T20:52:20.996Z,91.59
2022-08-26T20:54:46.887Z,91.65
2022-08-26T20:57:13.830Z,91.50
2022-08-26T20:59:40.002Z,91.20
2022-08-26T21:02:06.863Z,91.33
2022-08-26T21:04:32.736Z,90.95
2022-08-26T21:06:58.657Z,90.69
2022-08-26T21:09:26.655Z,91.31
2022-08-26T21:11:53.060Z,90.41
2022-08-26T21:14:19.849Z,92.21
2022-08-26T21:16:46.399Z,92.09
2022-08-26T21:19:14.531Z,91.56
2022-08-26T21:21:41.074Z,92.28
2022-08-26T21:24:07.638Z,93.06
2022-08-26T21:26:33.583Z,92.93
2022-08-26T21:29:00.382Z,92.20
2022-08-26T21:31:26.410Z,91.47
2022-08-26T21:33:52.470Z,93.07
2022-08-26T21:36:19.139Z,91.89
2022-08-26T21:38:45.392Z,92.02
2022-08-26T21:41:14.681Z,92.37
2022-08-26T21:43:42.005Z,91.74
2022-08-26T21:46:13.683Z,93.02
2022-08-26T21:48:48.826Z,91.99
2022-08-26T21:51:19.336Z,93.02
2022-08-26T21:53:45.794Z,93.03
2022-08-26T21:56:14.412Z,92.89
2022-08-26T21:58:40.526Z,92.64
2022-08-26T22:01:13.269Z,93.62
2022-08-26T22:03:47.679Z,95.23
2022-08-26T22:06:16.686Z,95.02
2022-08-26T22:08:42.880Z,95.45
2022-08-26T22:11:09.640Z,94.62
2022-08-26T22:13:37.939Z,96.88
2022-08-26T22:16:05.322Z,96.38
2022-08-26T22:18:33.540Z,95.87
2022-08-26T22:21:04.639Z,94.81
2022-08-26T22:23:31.106Z,94.56
2022-08-26T22:25:58.084Z,95.23
2022-08-26T22:28:24.170Z,94.53
2022-08-26T22:30:50.154Z,96.21
2022-08-26T22:33:16.732Z,95.85
2022-08-26T22:35:45.779Z,96.80
2022-08-26T22:38:11.957Z,96.00
2022-08-26T22:40:45.862Z,96.64
2022-08-26T22:43:12.341Z,97.66
2022-08-26T22:45:47.098Z,97.87
2022-08-26T22:48:15.782Z,97.03
2022-08-26T22:50:43.537Z,96.61
2022-08-26T22:53:09.669Z,96.89
2022-08-26T22:55:36.780Z,96.95
2022-08-26T22:58:03.098Z,96.17
2022-08-26T23:00:32.122Z,97.88
2022-08-26T23:02:59.839Z,97.70
2022-08-26T23:05:25.769Z,98.39
2022-08-26T23:07:51.762Z,97.61
2022-08-26T23:10:17.639Z,98.38
2022-08-26T23:12:43.437Z,99.61
2022-08-26T23:15:11.638Z,98.80
2022-08-26T23:17:38.357Z,98.07
2022-08-26T23:20:09.256Z,98.96
2022-08-26T23:22:35.997Z,100.00
2022-08-26T23:25:02.611Z,100.00
2022-08-26T23:27:34.856Z,100.00
2022-08-26T23:30:00.877Z,100.00
2022-08-26T23:32:26.759Z,100.00
2022-08-26T23:34:55.091Z,100.00
2022-08-26T23:37:31.362Z,100.00
2022-08-26T23:39:58.111Z,100.00
2022-08-26T23:42:24.029Z,100.00
2022-08-26T23:44:50.026Z,100.00
2022-08-26T23:47:17.524Z,100.00
2022-08-26T23:49:43.490Z,100.00
2022-08-26T23:52:27.993Z,100.00
2022-08-26T23:54:53.983Z,100.00
2022-08-26T23:57:22.714Z,100.00
2022-08-26T23:59:48.950Z,100.00
